Time;durP1;ratioP1;P1;durP2;ratioP2;P2;SDS_P1;SDS_P2;PMS_P1;PMS_P2;Temp;Humidity;BMP_temperature;BMP_pressure;BME280_temperature;BME280_humidity;BME280_pressure;Samples;Min_cycle;Max_cycle;Signal;HPM_P1;HPM_P2
2022/04/13 00:00:33;;;;;;;11.57;8.30;;;;;;;;;;5071554;28;20548;-64
2022/04/13 00:02:59;;;;;;;12.68;8.93;;;;;;;;;;5071550;28;20033;-65
2022/04/13 00:05:25;;;;;;;11.32;8.43;;;;;;;;;;5070734;28;20028;-64
2022/04/13 00:07:51;;;;;;;12.15;8.68;;;;;;;;;;5068844;28;20132;-65
2022/04/13 00:10:17;;;;;;;11.20;8.63;;;;;;;;;;5069554;28;20093;-65
2022/04/13 00:12:43;;;;;;;9.52;8.15;;;;;;;;;;5071002;28;20440;-65
2022/04/13 00:15:09;;;;;;;10.85;8.23;;;;;;;;;;5071829;28;20077;-64
2022/04/13 00:17:36;;;;;;;13.65;8.18;;;;;;;;;;5069209;28;20513;-65
2022/04/13 00:20:02;;;;;;;10.88;7.90;;;;;;;;;;5070870;28;20032;-65
2022/04/13 00:22:28;;;;;;;10.23;7.55;;;;;;;;;;5064029;28;20518;-64
2022/04/13 00:24:54;;;;;;;11.00;7.93;;;;;;;;;;5067091;28;20036;-64
2022/04/13 00:27:20;;;;;;;11.75;7.57;;;;;;;;;;5099077;22;20070;-63
2022/04/13 00:29:46;;;;;;;10.38;8.05;;;;;;;;;;5090203;28;20032;-63
2022/04/13 00:32:12;;;;;;;12.00;7.78;;;;;;;;;;5091022;28;20097;-63
2022/04/13 00:34:38;;;;;;;12.30;7.88;;;;;;;;;;5091571;28;20036;-63
2022/04/13 00:37:04;;;;;;;13.25;8.55;;;;;;;;;;5077834;28;20458;-63
2022/04/13 00:39:30;;;;;;;11.20;8.27;;;;;;;;;;5070461;28;20028;-63
2022/04/13 00:42:00;;;;;;;15.57;8.63;;;;;;;;;;5071143;28;20494;-63
2022/04/13 00:44:30;;;;;;;15.15;7.78;;;;;;;;;;5070518;28;20075;-63
2022/04/13 00:46:57;;;;;;;11.32;8.10;;;;;;;;;;5070496;28;20037;-63
2022/04/13 00:49:23;;;;;;;12.23;8.13;;;;;;;;;;5070341;28;20491;-63
2022/04/13 00:51:50;;;;;;;11.70;8.18;;;;;;;;;;5069964;28;20033;-63
2022/04/13 00:54:18;;;;;;;11.05;7.97;;;;;;;;;;5070895;28;20078;-63
2022/04/13 00:56:45;;;;;;;10.90;8.75;;;;;;;;;;5070341;28;20455;-63
2022/04/13 00:59:13;;;;;;;11.18;8.23;;;;;;;;;;5069900;28;20072;-63
2022/04/13 01:01:41;;;;;;;11.02;8.55;;;;;;;;;;5071138;28;20097;-63
2022/04/13 01:04:07;;;;;;;14.02;8.82;;;;;;;;;;5071013;28;20040;-63
2022/04/13 01:06:34;;;;;;;13.82;8.25;;;;;;;;;;5068397;28;20037;-63
2022/04/13 01:09:00;;;;;;;10.52;8.85;;;;;;;;;;5070692;28;20158;-63
2022/04/13 01:11:27;;;;;;;14.35;9.13;;;;;;;;;;5070955;28;20040;-63
2022/04/13 01:13:54;;;;;;;14.80;9.43;;;;;;;;;;5069670;28;20058;-63
2022/04/13 01:16:21;;;;;;;13.07;8.52;;;;;;;;;;5067372;28;20048;-63
2022/04/13 01:18:47;;;;;;;12.80;8.90;;;;;;;;;;5069550;28;20095;-63
2022/04/13 01:21:15;;;;;;;13.10;8.95;;;;;;;;;;5069848;28;20090;-63
2022/04/13 01:23:41;;;;;;;11.98;9.02;;;;;;;;;;5067761;28;20032;-63
2022/04/13 01:26:09;;;;;;;14.90;8.65;;;;;;;;;;5069783;28;20048;-63
2022/04/13 01:28:35;;;;;;;11.30;8.95;;;;;;;;;;5050758;28;20056;-64
2022/04/13 01:31:01;;;;;;;12.73;9.02;;;;;;;;;;5070367;28;20399;-64
2022/04/13 01:33:28;;;;;;;12.68;8.70;;;;;;;;;;5066085;28;20032;-64
2022/04/13 01:35:56;;;;;;;12.27;9.20;;;;;;;;;;5073835;28;20039;-64
2022/04/13 01:38:22;;;;;;;13.68;9.43;;;;;;;;;;5073443;28;20119;-64
2022/04/13 01:40:49;;;;;;;10.15;8.45;;;;;;;;;;5073522;28;20436;-64
2022/04/13 01:43:15;;;;;;;13.02;8.57;;;;;;;;;;5073629;28;20379;-64
2022/04/13 01:45:41;;;;;;;13.13;10.05;;;;;;;;;;5073301;28;20043;-64
2022/04/13 01:48:10;;;;;;;12.98;8.93;;;;;;;;;;5074126;28;20460;-64
2022/04/13 01:50:36;;;;;;;11.38;9.13;;;;;;;;;;5075130;28;20064;-64
2022/04/13 01:53:02;;;;;;;13.80;9.52;;;;;;;;;;5073061;28;20091;-64
2022/04/13 01:55:28;;;;;;;13.35;10.02;;;;;;;;;;5065899;28;20029;-63
2022/04/13 01:57:54;;;;;;;15.52;10.38;;;;;;;;;;5073844;28;20051;-64
2022/04/13 02:00:20;;;;;;;15.43;10.07;;;;;;;;;;5069897;28;20052;-64
2022/04/13 02:02:46;;;;;;;16.88;10.55;;;;;;;;;;5071349;28;20032;-64
2022/04/13 02:05:12;;;;;;;14.27;10.07;;;;;;;;;;5070001;28;20919;-64
2022/04/13 02:07:38;;;;;;;13.77;10.55;;;;;;;;;;5072418;28;20481;-64
2022/04/13 02:10:05;;;;;;;16.95;10.73;;;;;;;;;;5073108;28;20410;-64
2022/04/13 02:12:32;;;;;;;13.93;10.77;;;;;;;;;;5074040;28;20072;-64
2022/04/13 02:14:58;;;;;;;15.50;11.43;;;;;;;;;;5074177;28;20102;-63
2022/04/13 02:17:24;;;;;;;16.65;11.65;;;;;;;;;;5072442;28;20048;-63
2022/04/13 02:19:50;;;;;;;17.33;12.07;;;;;;;;;;5071306;28;20120;-64
2022/04/13 02:22:16;;;;;;;15.57;12.13;;;;;;;;;;5055869;28;20418;-64
2022/04/13 02:24:42;;;;;;;16.58;12.27;;;;;;;;;;5073425;28;20040;-63
2022/04/13 02:27:09;;;;;;;16.42;12.20;;;;;;;;;;5072651;28;20398;-64
2022/04/13 02:29:35;;;;;;;18.10;12.07;;;;;;;;;;5073449;28;20040;-64
2022/04/13 02:32:02;;;;;;;11.85;8.45;;;;;;;;;;5072352;28;20138;-64
2022/04/13 02:34:28;;;;;;;13.55;10.00;;;;;;;;;;5064259;28;20071;-64
2022/04/13 02:36:54;;;;;;;15.98;10.25;;;;;;;;;;5072252;28;20064;-64
2022/04/13 02:39:20;;;;;;;11.82;9.20;;;;;;;;;;5072654;28;20089;-64
2022/04/13 02:41:46;;;;;;;13.82;9.85;;;;;;;;;;5073198;28;20068;-64
2022/04/13 02:44:12;;;;;;;13.30;9.85;;;;;;;;;;5072436;28;20086;-64
2022/04/13 02:46:38;;;;;;;13.40;9.48;;;;;;;;;;5071547;28;20684;-64
2022/04/13 02:49:04;;;;;;;14.18;10.40;;;;;;;;;;5072231;28;20029;-64
2022/04/13 02:51:30;;;;;;;13.23;10.38;;;;;;;;;;5072218;28;20036;-64
2022/04/13 02:53:56;;;;;;;12.82;10.50;;;;;;;;;;5073154;28;20036;-64
2022/04/13 02:56:22;;;;;;;14.38;10.07;;;;;;;;;;5071590;28;20504;-64
2022/04/13 02:58:48;;;;;;;13.43;9.13;;;;;;;;;;5072931;28;20110;-64
2022/04/13 03:01:14;;;;;;;14.50;9.80;;;;;;;;;;5072930;28;20483;-64
2022/04/13 03:03:40;;;;;;;11.95;9.73;;;;;;;;;;5065962;28;20402;-64
2022/04/13 03:06:06;;;;;;;10.88;9.68;;;;;;;;;;5071918;28;20044;-64
2022/04/13 03:08:32;;;;;;;15.38;10.07;;;;;;;;;;5071999;28;20044;-64
2022/04/13 03:10:58;;;;;;;15.57;11.30;;;;;;;;;;5068835;28;20119;-64
2022/04/13 03:13:24;;;;;;;13.90;11.88;;;;;;;;;;5064015;28;20163;-64
2022/04/13 03:15:50;;;;;;;16.90;11.82;;;;;;;;;;5060990;28;20086;-64
2022/04/13 03:18:16;;;;;;;15.57;11.15;;;;;;;;;;5065124;28;20048;-64
2022/04/13 03:20:42;;;;;;;15.48;11.40;;;;;;;;;;5064436;28;20430;-64
2022/04/13 03:23:08;;;;;;;13.52;10.73;;;;;;;;;;5068466;28;20040;-64
2022/04/13 03:25:34;;;;;;;17.20;12.13;;;;;;;;;;5064298;28;20074;-64
2022/04/13 03:28:00;;;;;;;14.02;11.60;;;;;;;;;;5067025;28;20051;-64
2022/04/13 03:30:26;;;;;;;15.60;11.57;;;;;;;;;;5070352;28;20059;-64
2022/04/13 03:32:52;;;;;;;15.75;11.65;;;;;;;;;;5067828;28;20514;-64
2022/04/13 03:35:18;;;;;;;21.17;12.88;;;;;;;;;;5071357;28;20124;-64
2022/04/13 03:37:44;;;;;;;17.02;12.40;;;;;;;;;;5066441;28;20119;-64
2022/04/13 03:40:11;;;;;;;19.55;13.65;;;;;;;;;;5049137;28;20131;-65
2022/04/13 03:42:38;;;;;;;16.83;12.38;;;;;;;;;;5064125;28;20086;-64
2022/04/13 03:45:08;;;;;;;16.65;11.90;;;;;;;;;;5069358;28;20117;-64
2022/04/13 03:47:34;;;;;;;21.13;13.32;;;;;;;;;;5068221;28;20036;-64
2022/04/13 03:50:00;;;;;;;19.30;12.63;;;;;;;;;;5070265;28;20043;-64
2022/04/13 03:52:27;;;;;;;17.95;12.50;;;;;;;;;;5070988;28;20064;-64
2022/04/13 03:54:53;;;;;;;16.35;12.80;;;;;;;;;;5070892;28;20108;-64
2022/04/13 03:57:19;;;;;;;14.98;12.30;;;;;;;;;;5071119;28;20518;-64
2022/04/13 03:59:45;;;;;;;16.23;12.02;;;;;;;;;;5070344;28;20157;-64
2022/04/13 04:02:11;;;;;;;16.27;12.35;;;;;;;;;;5066917;28;20040;-64
2022/04/13 04:04:37;;;;;;;18.48;12.27;;;;;;;;;;5066149;28;20047;-64
2022/04/13 04:07:04;;;;;;;20.70;12.32;;;;;;;;;;5063620;28;20041;-64
2022/04/13 04:09:30;;;;;;;19.17;11.35;;;;;;;;;;5059691;28;20037;-64
2022/04/13 04:11:56;;;;;;;18.13;12.00;;;;;;;;;;5067966;28;20036;-64
2022/04/13 04:14:22;;;;;;;17.02;11.65;;;;;;;;;;5070663;28;20506;-64
2022/04/13 04:16:48;;;;;;;16.73;11.68;;;;;;;;;;5063781;28;20032;-64
2022/04/13 04:19:13;;;;;;;19.02;12.60;;;;;;;;;;5068232;28;20044;-64
2022/04/13 04:21:39;;;;;;;17.42;11.70;;;;;;;;;;5067911;28;20043;-64
2022/04/13 04:24:06;;;;;;;20.45;13.25;;;;;;;;;;5069504;28;20037;-64
2022/04/13 04:26:32;;;;;;;18.95;13.05;;;;;;;;;;5061787;28;20028;-64
2022/04/13 04:28:58;;;;;;;19.83;12.82;;;;;;;;;;5063733;28;20517;-64
2022/04/13 04:34:08;;;;;;;15.55;11.73;;;;;;;;;;5070035;28;20040;-64
2022/04/13 04:36:35;;;;;;;16.50;11.65;;;;;;;;;;5053364;28;20486;-64
2022/04/13 04:39:01;;;;;;;18.38;11.00;;;;;;;;;;5069866;28;20035;-64
2022/04/13 04:41:27;;;;;;;16.33;11.90;;;;;;;;;;5062560;28;20119;-64
2022/04/13 04:43:53;;;;;;;17.15;12.48;;;;;;;;;;5062986;28;20044;-64
2022/04/13 04:46:18;;;;;;;20.48;12.02;;;;;;;;;;5068388;28;20046;-64
2022/04/13 04:48:45;;;;;;;17.67;12.38;;;;;;;;;;5068336;28;20036;-64
2022/04/13 04:51:12;;;;;;;17.27;12.32;;;;;;;;;;5069893;28;20081;-64
2022/04/13 04:53:38;;;;;;;25.35;12.32;;;;;;;;;;5061411;28;20032;-64
2022/04/13 04:56:04;;;;;;;16.38;12.18;;;;;;;;;;5068861;28;20040;-64
2022/04/13 04:58:30;;;;;;;23.13;13.77;;;;;;;;;;5062103;28;20089;-64
2022/04/13 05:00:56;;;;;;;18.50;12.70;;;;;;;;;;5062816;28;20549;-64
2022/04/13 05:03:22;;;;;;;19.08;12.02;;;;;;;;;;5066908;28;20037;-64
2022/04/13 05:05:48;;;;;;;19.17;11.98;;;;;;;;;;5069052;28;20029;-64
2022/04/13 05:08:14;;;;;;;17.70;11.82;;;;;;;;;;5066267;28;20072;-64
2022/04/13 05:10:50;;;;;;;18.38;11.57;;;;;;;;;;5073995;28;20633;-64
2022/04/13 05:13:16;;;;;;;17.48;12.25;;;;;;;;;;5072451;28;20047;-64
2022/04/13 05:15:42;;;;;;;17.75;12.40;;;;;;;;;;5068565;28;20036;-64
2022/04/13 05:18:08;;;;;;;22.13;13.77;;;;;;;;;;5074170;28;20033;-64
2022/04/13 05:20:34;;;;;;;20.15;13.70;;;;;;;;;;5074214;28;20032;-64
2022/04/13 05:23:00;;;;;;;22.15;13.48;;;;;;;;;;5073209;28;20119;-65
2022/04/13 05:25:26;;;;;;;20.23;13.57;;;;;;;;;;5068198;28;20047;-64
2022/04/13 05:27:52;;;;;;;21.27;12.90;;;;;;;;;;5071368;28;20513;-64
2022/04/13 05:30:18;;;;;;;17.52;12.77;;;;;;;;;;5068306;28;20041;-64
2022/04/13 05:32:56;;;;;;;21.55;13.02;;;;;;;;;;5069484;28;20037;-64
2022/04/13 05:35:23;;;;;;;20.88;12.95;;;;;;;;;;5068757;28;20044;-64
2022/04/13 05:37:49;;;;;;;19.05;12.32;;;;;;;;;;5072721;28;20127;-64
2022/04/13 05:40:16;;;;;;;18.83;13.60;;;;;;;;;;5073963;28;20119;-64
2022/04/13 05:42:42;;;;;;;19.35;13.35;;;;;;;;;;5070511;28;20040;-64
2022/04/13 05:45:08;;;;;;;20.17;13.80;;;;;;;;;;5070749;28;20033;-64
2022/04/13 05:47:34;;;;;;;25.48;14.55;;;;;;;;;;5069506;28;20136;-63
2022/04/13 05:50:01;;;;;;;20.83;13.45;;;;;;;;;;5068040;28;20083;-64
2022/04/13 05:52:27;;;;;;;23.00;13.65;;;;;;;;;;5070096;28;20033;-64
2022/04/13 05:54:53;;;;;;;22.30;14.55;;;;;;;;;;5072166;28;20044;-64
2022/04/13 05:57:19;;;;;;;23.25;14.13;;;;;;;;;;5070906;28;20037;-64
2022/04/13 05:59:45;;;;;;;22.33;14.40;;;;;;;;;;5056757;28;20622;-63
2022/04/13 06:02:11;;;;;;;22.48;14.52;;;;;;;;;;5071080;28;20052;-64
2022/04/13 06:04:37;;;;;;;19.27;13.90;;;;;;;;;;5073848;28;20511;-64
2022/04/13 06:07:03;;;;;;;20.98;14.35;;;;;;;;;;5073353;28;20043;-64
2022/04/13 06:09:29;;;;;;;19.88;13.82;;;;;;;;;;5062957;28;20043;-64
2022/04/13 06:11:55;;;;;;;20.30;14.18;;;;;;;;;;5072558;28;20036;-64
2022/04/13 06:14:21;;;;;;;22.85;14.77;;;;;;;;;;5070179;28;20028;-64
2022/04/13 06:16:47;;;;;;;23.70;15.48;;;;;;;;;;5067904;28;20043;-64
2022/04/13 06:19:13;;;;;;;21.20;14.82;;;;;;;;;;5071717;28;20119;-64
2022/04/13 06:21:39;;;;;;;21.52;14.48;;;;;;;;;;5068038;28;20040;-64
2022/04/13 06:24:05;;;;;;;20.70;14.48;;;;;;;;;;5070696;28;20037;-64
2022/04/13 06:26:32;;;;;;;22.10;14.13;;;;;;;;;;5087855;22;20442;-68
2022/04/13 06:28:57;;;;;;;23.52;15.80;;;;;;;;;;5077785;28;20120;-69
2022/04/13 06:31:23;;;;;;;23.92;15.15;;;;;;;;;;5070609;28;20549;-69
2022/04/13 06:33:49;;;;;;;22.05;15.35;;;;;;;;;;5081708;28;20036;-69
2022/04/13 06:36:16;;;;;;;26.30;15.20;;;;;;;;;;5062336;28;20068;-68
2022/04/13 06:38:42;;;;;;;30.02;16.20;;;;;;;;;;5070794;28;20040;-69
2022/04/13 06:41:11;;;;;;;23.63;15.38;;;;;;;;;;5069586;28;20028;-70
2022/04/13 06:43:37;;;;;;;26.17;16.73;;;;;;;;;;5065908;28;20546;-70
2022/04/13 06:46:03;;;;;;;22.92;15.82;;;;;;;;;;5071315;28;20082;-70
2022/04/13 06:48:29;;;;;;;25.55;15.48;;;;;;;;;;5074910;28;20042;-70
2022/04/13 06:50:55;;;;;;;24.08;15.63;;;;;;;;;;5070666;28;20488;-70
2022/04/13 06:53:21;;;;;;;21.40;14.52;;;;;;;;;;5074243;28;20043;-70
2022/04/13 06:55:48;;;;;;;24.27;15.30;;;;;;;;;;5070002;28;20028;-70
2022/04/13 06:58:18;;;;;;;22.17;15.52;;;;;;;;;;5070747;28;20079;-69
2022/04/13 07:00:44;;;;;;;23.33;14.95;;;;;;;;;;5070166;28;20090;-69
2022/04/13 07:03:10;;;;;;;21.83;14.73;;;;;;;;;;5073841;28;20514;-70
2022/04/13 07:05:36;;;;;;;21.42;14.00;;;;;;;;;;5069316;28;20051;-69
2022/04/13 07:08:05;;;;;;;25.98;15.18;;;;;;;;;;5072768;28;20040;-70
2022/04/13 07:10:32;;;;;;;21.63;14.57;;;;;;;;;;5071518;28;20044;-70
2022/04/13 07:12:58;;;;;;;25.40;14.18;;;;;;;;;;5073091;28;20043;-70
2022/04/13 07:15:24;;;;;;;23.17;14.63;;;;;;;;;;5073256;28;20032;-70
2022/04/13 07:17:50;;;;;;;24.42;14.70;;;;;;;;;;5077783;28;20040;-70
2022/04/13 07:20:17;;;;;;;21.00;13.80;;;;;;;;;;5071279;28;20036;-70
2022/04/13 07:22:47;;;;;;;22.10;13.25;;;;;;;;;;5071154;28;20050;-70
2022/04/13 07:25:13;;;;;;;21.42;12.73;;;;;;;;;;5069763;28;20053;-71
2022/04/13 07:27:39;;;;;;;16.80;11.27;;;;;;;;;;5071019;28;20459;-71
2022/04/13 07:30:06;;;;;;;19.77;11.98;;;;;;;;;;5064911;28;20036;-71
2022/04/13 07:32:32;;;;;;;16.20;9.95;;;;;;;;;;5066606;28;20029;-72
2022/04/13 07:35:04;;;;;;;18.73;10.32;;;;;;;;;;5066605;28;20032;-72
2022/04/13 07:37:31;;;;;;;19.67;9.85;;;;;;;;;;5064944;28;20043;-71
2022/04/13 07:39:57;;;;;;;14.57;8.88;;;;;;;;;;5077950;28;20525;-71
2022/04/13 07:42:23;;;;;;;14.63;8.25;;;;;;;;;;5078492;28;20040;-71
2022/04/13 07:44:49;;;;;;;12.68;8.52;;;;;;;;;;5068178;28;20044;-72
2022/04/13 07:47:16;;;;;;;15.65;8.70;;;;;;;;;;5062700;28;20055;-71
2022/04/13 07:49:43;;;;;;;16.27;9.35;;;;;;;;;;5069428;28;20048;-72
2022/04/13 07:52:09;;;;;;;13.27;8.85;;;;;;;;;;5071799;28;20090;-71
2022/04/13 07:54:35;;;;;;;14.35;9.25;;;;;;;;;;5075004;28;20028;-71
2022/04/13 07:57:01;;;;;;;16.55;9.80;;;;;;;;;;5074375;28;20513;-71
2022/04/13 07:59:31;;;;;;;12.98;9.20;;;;;;;;;;5080416;28;20040;-72
2022/04/13 08:01:57;;;;;;;17.55;9.38;;;;;;;;;;5060532;28;20052;-73
2022/04/13 08:04:23;;;;;;;16.45;9.60;;;;;;;;;;5074158;28;20047;-73
2022/04/13 08:06:49;;;;;;;12.20;8.32;;;;;;;;;;5081407;28;20040;-73
2022/04/13 08:09:15;;;;;;;13.82;8.10;;;;;;;;;;5081672;28;20036;-73
2022/04/13 08:11:45;;;;;;;16.35;7.82;;;;;;;;;;5075086;28;20033;-73
2022/04/13 08:14:11;;;;;;;12.00;7.70;;;;;;;;;;5080012;28;20047;-73
2022/04/13 08:16:37;;;;;;;14.43;9.07;;;;;;;;;;5077410;28;20036;-73
2022/04/13 08:19:05;;;;;;;14.57;8.63;;;;;;;;;;5083204;28;20039;-73
2022/04/13 08:21:31;;;;;;;14.05;8.98;;;;;;;;;;5079729;28;20040;-73
2022/04/13 08:23:57;;;;;;;15.32;9.15;;;;;;;;;;5082702;28;20036;-73
2022/04/13 08:26:23;;;;;;;12.80;8.63;;;;;;;;;;5070045;28;20048;-74
2022/04/13 08:28:49;;;;;;;14.70;9.75;;;;;;;;;;5069970;28;20484;-74
2022/04/13 08:31:15;;;;;;;20.17;10.07;;;;;;;;;;5077427;28;20087;-73
2022/04/13 08:33:41;;;;;;;12.70;9.88;;;;;;;;;;5083155;28;20039;-73
2022/04/13 08:36:07;;;;;;;18.33;9.95;;;;;;;;;;5074950;28;20029;-73
2022/04/13 08:38:33;;;;;;;15.75;10.18;;;;;;;;;;5073509;28;20032;-73
2022/04/13 08:41:02;;;;;;;12.98;9.63;;;;;;;;;;5068752;28;20090;-74
2022/04/13 08:43:33;;;;;;;16.70;9.80;;;;;;;;;;5071192;28;20032;-74
2022/04/13 08:46:00;;;;;;;15.32;9.23;;;;;;;;;;5075558;28;20036;-73
2022/04/13 08:48:27;;;;;;;16.00;9.73;;;;;;;;;;5083817;28;20070;-73
2022/04/13 08:51:00;;;;;;;15.50;9.57;;;;;;;;;;5071351;28;20028;-73
2022/04/13 08:53:29;;;;;;;13.15;8.75;;;;;;;;;;5080343;28;20096;-73
2022/04/13 08:55:55;;;;;;;12.60;8.40;;;;;;;;;;5072117;28;20032;-73
2022/04/13 08:58:40;;;;;;;12.98;8.20;;;;;;;;;;5072713;28;20047;-73
2022/04/13 09:01:11;;;;;;;13.95;7.95;;;;;;;;;;5075641;28;20138;-73
2022/04/13 09:03:38;;;;;;;14.60;7.57;;;;;;;;;;5077579;28;20109;-73
2022/04/13 09:06:05;;;;;;;12.93;7.75;;;;;;;;;;5074079;28;20120;-73
2022/04/13 09:08:34;;;;;;;16.95;9.00;;;;;;;;;;5081596;28;20032;-73
2022/04/13 09:11:01;;;;;;;13.73;8.77;;;;;;;;;;5066868;28;20045;-73
2022/04/13 09:13:27;;;;;;;14.95;8.27;;;;;;;;;;5072147;28;20040;-73
2022/04/13 09:15:54;;;;;;;17.55;9.00;;;;;;;;;;5080855;28;20155;-73
2022/04/13 09:18:20;;;;;;;11.68;7.95;;;;;;;;;;5074976;28;20052;-73
2022/04/13 09:20:46;;;;;;;13.02;7.97;;;;;;;;;;5078310;28;20036;-73
2022/04/13 09:23:14;;;;;;;14.18;8.70;;;;;;;;;;5076699;28;20443;-73
2022/04/13 09:25:41;;;;;;;15.10;8.65;;;;;;;;;;5070636;28;20516;-73
2022/04/13 09:28:07;;;;;;;14.27;8.73;;;;;;;;;;5078859;28;20036;-74
2022/04/13 09:30:33;;;;;;;12.77;8.77;;;;;;;;;;5076954;28;20533;-74
2022/04/13 09:33:01;;;;;;;15.35;8.85;;;;;;;;;;5079257;28;20036;-74
2022/04/13 09:35:27;;;;;;;16.88;9.90;;;;;;;;;;5076278;28;20057;-73
2022/04/13 09:37:53;;;;;;;13.38;8.40;;;;;;;;;;5075486;28;20033;-74
2022/04/13 09:40:39;;;;;;;13.43;8.77;;;;;;;;;;5070527;28;20044;-73
2022/04/13 09:43:12;;;;;;;16.38;8.48;;;;;;;;;;5076568;28;20091;-73
2022/04/13 09:45:41;;;;;;;12.45;8.38;;;;;;;;;;5082573;28;20413;-73
2022/04/13 09:48:08;;;;;;;14.90;8.32;;;;;;;;;;5066560;28;20116;-73
2022/04/13 09:50:35;;;;;;;13.38;8.18;;;;;;;;;;5074713;28;21274;-74
2022/04/13 09:53:06;;;;;;;12.98;7.82;;;;;;;;;;5072023;28;20405;-74
2022/04/13 09:55:38;;;;;;;13.75;8.00;;;;;;;;;;5074000;28;20032;-73
2022/04/13 09:58:05;;;;;;;15.05;7.18;;;;;;;;;;5084990;28;20402;-73
2022/04/13 10:00:31;;;;;;;11.25;7.22;;;;;;;;;;5080904;28;20379;-73
2022/04/13 10:03:07;;;;;;;13.50;7.25;;;;;;;;;;5082094;28;20135;-74
2022/04/13 10:05:34;;;;;;;12.13;7.07;;;;;;;;;;5073321;28;20048;-73
2022/04/13 10:08:04;;;;;;;15.93;8.00;;;;;;;;;;5076909;28;20500;-73
2022/04/13 10:10:30;;;;;;;11.02;7.05;;;;;;;;;;5070037;28;20490;-73
2022/04/13 10:12:56;;;;;;;8.95;6.95;;;;;;;;;;5076133;28;20027;-73
2022/04/13 10:15:22;;;;;;;13.07;7.53;;;;;;;;;;5084527;28;20044;-74
2022/04/13 10:17:49;;;;;;;11.43;7.32;;;;;;;;;;5085560;28;20031;-73
2022/04/13 10:20:15;;;;;;;10.63;6.18;;;;;;;;;;5077835;28;20049;-73
2022/04/13 10:23:00;;;;;;;11.43;6.88;;;;;;;;;;5079483;28;20032;-73
2022/04/13 10:25:27;;;;;;;14.55;7.25;;;;;;;;;;5076218;28;20409;-74
2022/04/13 10:27:57;;;;;;;11.85;7.22;;;;;;;;;;5080916;28;20036;-74
2022/04/13 10:30:26;;;;;;;10.77;6.85;;;;;;;;;;5076583;28;20042;-73
2022/04/13 10:32:59;;;;;;;11.70;7.50;;;;;;;;;;5081380;28;20039;-74
2022/04/13 10:35:26;;;;;;;12.32;6.70;;;;;;;;;;5078931;28;20029;-74
2022/04/13 10:37:54;;;;;;;9.60;6.28;;;;;;;;;;5072540;28;20040;-73
2022/04/13 10:40:21;;;;;;;12.38;6.90;;;;;;;;;;5084405;28;20054;-73
2022/04/13 10:42:48;;;;;;;10.57;7.07;;;;;;;;;;5082042;28;20111;-73
2022/04/13 10:45:14;;;;;;;9.55;6.60;;;;;;;;;;5080340;28;20048;-73
2022/04/13 10:47:41;;;;;;;11.85;7.32;;;;;;;;;;5080131;28;20033;-73
2022/04/13 10:50:08;;;;;;;12.63;6.90;;;;;;;;;;5081006;28;20029;-73
2022/04/13 10:52:41;;;;;;;12.50;5.93;;;;;;;;;;5072769;28;20029;-73
2022/04/13 10:55:09;;;;;;;10.75;6.50;;;;;;;;;;5073316;28;20399;-73
2022/04/13 10:57:36;;;;;;;10.50;6.10;;;;;;;;;;5079091;28;20052;-74
2022/04/13 11:00:04;;;;;;;9.10;5.47;;;;;;;;;;5080328;28;20047;-73
2022/04/13 11:02:33;;;;;;;9.82;5.35;;;;;;;;;;5073913;28;20459;-73
2022/04/13 11:05:00;;;;;;;6.95;4.93;;;;;;;;;;5072739;28;20086;-73
2022/04/13 11:07:26;;;;;;;10.13;5.28;;;;;;;;;;5075212;28;20116;-73
2022/04/13 11:09:56;;;;;;;7.40;4.85;;;;;;;;;;5087559;28;20040;-74
2022/04/13 11:12:22;;;;;;;10.95;5.63;;;;;;;;;;5075604;28;20051;-74
2022/04/13 11:14:52;;;;;;;8.60;5.15;;;;;;;;;;5083759;28;20025;-74
2022/04/13 11:17:20;;;;;;;10.30;5.95;;;;;;;;;;5085627;28;20142;-74
2022/04/13 11:19:47;;;;;;;8.88;5.45;;;;;;;;;;5071102;28;20067;-74
2022/04/13 11:22:16;;;;;;;12.23;5.55;;;;;;;;;;5081028;28;20048;-74
2022/04/13 11:24:53;;;;;;;8.60;5.35;;;;;;;;;;5084931;28;20054;-74
2022/04/13 11:27:19;;;;;;;10.35;5.88;;;;;;;;;;5075742;28;20052;-73
2022/04/13 11:29:46;;;;;;;8.88;6.25;;;;;;;;;;5082567;28;20499;-73
2022/04/13 11:32:13;;;;;;;9.52;5.47;;;;;;;;;;5074764;28;20387;-73
2022/04/13 11:34:58;;;;;;;11.38;5.97;;;;;;;;;;5071886;28;20048;-73
2022/04/13 11:37:25;;;;;;;8.18;5.15;;;;;;;;;;5083438;28;20082;-74
2022/04/13 11:39:53;;;;;;;8.27;5.07;;;;;;;;;;5080725;28;20040;-74
2022/04/13 11:42:22;;;;;;;7.78;4.93;;;;;;;;;;5077490;28;20308;-73
2022/04/13 11:44:48;;;;;;;6.05;4.35;;;;;;;;;;5070108;28;20092;-73
2022/04/13 11:47:15;;;;;;;6.47;4.65;;;;;;;;;;5071301;28;20445;-73
2022/04/13 11:49:57;;;;;;;9.20;4.88;;;;;;;;;;5082177;28;20089;-73
2022/04/13 11:52:42;;;;;;;10.23;5.78;;;;;;;;;;5083113;28;20039;-73
2022/04/13 11:55:16;;;;;;;11.35;6.10;;;;;;;;;;5076900;28;20493;-73
2022/04/13 11:58:02;;;;;;;8.48;5.95;;;;;;;;;;5068064;28;20040;-73
2022/04/13 12:00:50;;;;;;;9.82;5.88;;;;;;;;;;5072298;28;20036;-73
2022/04/13 12:03:20;;;;;;;8.93;6.68;;;;;;;;;;5078961;28;20116;-74
2022/04/13 12:05:50;;;;;;;8.50;6.65;;;;;;;;;;5081687;28;20099;-73
2022/04/13 12:08:17;;;;;;;9.73;6.85;;;;;;;;;;5080720;28;20047;-73
2022/04/13 12:11:03;;;;;;;7.88;5.45;;;;;;;;;;5076535;28;20544;-73
2022/04/13 12:13:33;;;;;;;9.52;6.63;;;;;;;;;;5067321;28;20036;-73
2022/04/13 12:15:59;;;;;;;11.23;6.20;;;;;;;;;;5075301;28;20430;-73
2022/04/13 12:18:26;;;;;;;11.43;6.22;;;;;;;;;;5083309;28;20036;-73
2022/04/13 12:20:53;;;;;;;6.95;5.53;;;;;;;;;;5083786;28;20036;-73
2022/04/13 12:23:21;;;;;;;9.35;5.47;;;;;;;;;;5076166;28;20048;-73
2022/04/13 12:25:48;;;;;;;10.57;4.72;;;;;;;;;;5069687;28;20040;-73
2022/04/13 12:28:14;;;;;;;11.07;5.57;;;;;;;;;;5084393;22;20044;-62
2022/04/13 12:30:40;;;;;;;6.75;5.15;;;;;;;;;;5071376;28;20032;-63
2022/04/13 12:33:13;;;;;;;10.20;5.55;;;;;;;;;;5070536;28;20089;-63
2022/04/13 12:35:46;;;;;;;7.35;4.15;;;;;;;;;;5071029;28;20128;-63
2022/04/13 12:38:20;;;;;;;6.68;3.80;;;;;;;;;;5070771;28;20102;-63
2022/04/13 12:40:46;;;;;;;5.03;2.50;;;;;;;;;;5070061;28;20036;-63
2022/04/13 12:43:24;;;;;;;7.20;2.20;;;;;;;;;;5070753;28;20409;-63
2022/04/13 12:45:50;;;;;;;6.32;2.35;;;;;;;;;;5070936;28;20043;-63
2022/04/13 12:48:16;;;;;;;8.55;3.60;;;;;;;;;;5070417;28;20041;-62
2022/04/13 12:50:58;;;;;;;7.30;3.65;;;;;;;;;;5071055;28;20111;-63
2022/04/13 12:53:24;;;;;;;6.25;3.40;;;;;;;;;;5070931;28;20033;-62
2022/04/13 12:55:51;;;;;;;5.47;3.05;;;;;;;;;;5069981;28;20040;-63
2022/04/13 12:58:17;;;;;;;6.88;3.40;;;;;;;;;;5070570;28;20059;-63
2022/04/13 13:00:50;;;;;;;6.53;3.13;;;;;;;;;;5070884;28;20037;-64
2022/04/13 13:03:16;;;;;;;6.68;3.10;;;;;;;;;;5070841;28;20087;-63
2022/04/13 13:05:42;;;;;;;6.97;3.60;;;;;;;;;;5071162;28;20071;-64
2022/04/13 13:08:08;;;;;;;7.30;3.10;;;;;;;;;;5070080;28;20071;-64
2022/04/13 13:10:35;;;;;;;6.07;2.70;;;;;;;;;;5070322;28;20083;-64
2022/04/13 13:13:11;;;;;;;6.85;3.00;;;;;;;;;;5070655;28;20509;-64
2022/04/13 13:15:37;;;;;;;9.55;4.55;;;;;;;;;;5065477;28;20036;-64
2022/04/13 13:18:07;;;;;;;15.63;7.05;;;;;;;;;;5069989;28;20075;-64
2022/04/13 13:20:33;;;;;;;15.50;7.30;;;;;;;;;;5070800;28;20090;-63
2022/04/13 13:22:59;;;;;;;16.45;6.97;;;;;;;;;;5070978;28;20033;-64
2022/04/13 13:25:25;;;;;;;17.45;8.02;;;;;;;;;;5069479;28;20511;-64
2022/04/13 13:27:59;;;;;;;14.45;7.68;;;;;;;;;;5070991;28;20680;-64
2022/04/13 13:30:26;;;;;;;15.10;8.00;;;;;;;;;;5053824;28;20055;-63
2022/04/13 13:32:55;;;;;;;15.70;7.65;;;;;;;;;;5074849;28;20047;-63
2022/04/13 13:35:22;;;;;;;11.65;6.60;;;;;;;;;;5073614;28;20174;-63
2022/04/13 13:37:48;;;;;;;14.98;6.75;;;;;;;;;;5074185;28;20041;-63
2022/04/13 13:40:33;;;;;;;17.65;5.57;;;;;;;;;;5073325;28;20083;-63
2022/04/13 13:43:00;;;;;;;12.27;5.40;;;;;;;;;;5074116;28;20467;-64
2022/04/13 13:45:36;;;;;;;9.45;5.35;;;;;;;;;;5074455;28;20040;-63
2022/04/13 13:48:03;;;;;;;9.45;4.75;;;;;;;;;;5074052;28;20044;-64
2022/04/13 13:50:30;;;;;;;7.88;3.80;;;;;;;;;;5067324;28;20077;-63
2022/04/13 13:52:56;;;;;;;8.32;3.50;;;;;;;;;;5073398;28;20047;-63
2022/04/13 13:55:26;;;;;;;5.78;3.03;;;;;;;;;;5069800;28;20486;-63
2022/04/13 13:57:52;;;;;;;9.60;3.00;;;;;;;;;;5066214;28;20040;-64
2022/04/13 14:00:19;;;;;;;6.30;2.40;;;;;;;;;;5070367;28;20033;-64
2022/04/13 14:02:52;;;;;;;5.20;2.03;;;;;;;;;;5070980;28;20558;-64
2022/04/13 14:05:22;;;;;;;4.80;1.67;;;;;;;;;;5064620;28;20059;-64
2022/04/13 14:07:49;;;;;;;5.03;1.65;;;;;;;;;;5072085;28;20045;-63
2022/04/13 14:10:15;;;;;;;6.47;1.58;;;;;;;;;;5069697;28;20044;-63
2022/04/13 14:12:41;;;;;;;5.70;1.38;;;;;;;;;;5071039;28;20029;-63
2022/04/13 14:15:10;;;;;;;6.35;1.70;;;;;;;;;;5072701;28;20036;-64
2022/04/13 14:17:37;;;;;;;3.72;1.25;;;;;;;;;;5070773;28;20040;-63
2022/04/13 14:20:03;;;;;;;6.65;1.73;;;;;;;;;;5072005;28;20040;-63
2022/04/13 14:22:29;;;;;;;5.25;1.60;;;;;;;;;;5073397;28;20083;-63
2022/04/13 14:24:55;;;;;;;5.50;2.00;;;;;;;;;;5068897;28;20044;-63
2022/04/13 14:27:21;;;;;;;7.20;1.55;;;;;;;;;;5071622;28;20063;-63
2022/04/13 14:29:47;;;;;;;5.65;1.60;;;;;;;;;;5070402;28;20036;-63
2022/04/13 14:32:13;;;;;;;7.50;1.73;;;;;;;;;;5066967;28;20036;-63